Time;durP1;ratioP1;P1;durP2;ratioP2;P2;SDS_P1;SDS_P2;PMS_P1;PMS_P2;Temp;Humidity;BMP_temperature;BMP_pressure;BME280_temperature;BME280_humidity;BME280_pressure;Samples;Min_cycle;Max_cycle;Signal;HPM_P1;HPM_P2
2022/03/23 00:00:22;;;;;;;28.07;13.47;;;4.40;78.00;;;;;;5062745;28;20477;-47
2022/03/23 00:02:49;;;;;;;22.47;13.73;;;4.40;77.90;;;;;;5063375;28;20643;-46
2022/03/23 00:05:18;;;;;;;23.30;15.10;;;4.20;78.10;;;;;;5063446;28;20487;-46
2022/03/23 00:07:45;;;;;;;24.10;15.00;;;4.00;78.70;;;;;;5065570;28;20465;-46
2022/03/23 00:10:12;;;;;;;25.63;15.37;;;4.00;79.40;;;;;;5066517;28;20598;-46
2022/03/23 00:12:38;;;;;;;30.83;14.00;;;4.00;79.00;;;;;;5066590;28;20483;-46
2022/03/23 00:15:06;;;;;;;24.07;13.77;;;4.00;78.40;;;;;;5061911;28;20482;-46
2022/03/23 00:17:33;;;;;;;23.70;13.43;;;4.10;78.30;;;;;;5056634;28;20571;-47
2022/03/23 00:20:00;;;;;;;33.60;14.63;;;4.10;78.70;;;;;;5058950;28;20489;-46
2022/03/23 00:22:28;;;;;;;29.53;14.53;;;4.10;79.10;;;;;;5057203;28;20489;-46
2022/03/23 00:24:56;;;;;;;24.90;14.47;;;4.10;79.20;;;;;;5057306;28;20842;-45
2022/03/23 00:27:22;;;;;;;36.03;16.80;;;4.10;79.20;;;;;;5062939;28;20479;-46
2022/03/23 00:29:49;;;;;;;29.50;15.97;;;4.10;79.10;;;;;;5061341;28;21129;-46
2022/03/23 00:32:16;;;;;;;24.10;14.33;;;4.10;79.00;;;;;;5051598;28;20484;-46
2022/03/23 00:34:43;;;;;;;27.70;12.60;;;4.00;78.50;;;;;;5061227;28;20466;-45
2022/03/23 00:37:10;;;;;;;22.17;13.87;;;4.00;78.30;;;;;;5059012;28;20484;-46
2022/03/23 00:39:38;;;;;;;23.20;14.20;;;4.00;78.10;;;;;;5062337;28;20515;-46
2022/03/23 00:42:05;;;;;;;29.00;14.50;;;3.90;77.90;;;;;;5061537;28;20493;-47
2022/03/23 00:44:32;;;;;;;29.47;15.40;;;3.80;78.20;;;;;;5059138;28;20490;-46
2022/03/23 00:46:59;;;;;;;25.17;14.43;;;3.80;78.00;;;;;;5062629;28;20486;-46
2022/03/23 00:49:26;;;;;;;32.53;14.27;;;3.80;78.10;;;;;;5060894;28;20491;-47
2022/03/23 00:51:53;;;;;;;23.70;14.50;;;3.80;78.50;;;;;;5065312;28;20487;-46
2022/03/23 00:54:20;;;;;;;28.27;13.57;;;3.80;78.80;;;;;;5060360;28;20999;-47
2022/03/23 00:56:50;;;;;;;34.07;13.87;;;3.60;78.60;;;;;;5058658;28;20484;-46
2022/03/23 00:59:17;;;;;;;20.87;14.10;;;3.40;78.90;;;;;;5061389;28;21022;-47
2022/03/23 01:01:45;;;;;;;22.07;12.80;;;3.30;79.70;;;;;;5056851;28;20484;-46
2022/03/23 01:04:12;;;;;;;28.77;14.33;;;3.10;81.60;;;;;;5060332;28;20510;-46
2022/03/23 01:06:39;;;;;;;34.23;15.40;;;3.00;82.50;;;;;;5061880;28;20491;-46
2022/03/23 01:09:06;;;;;;;28.60;14.87;;;2.90;82.90;;;;;;5061035;28;20492;-47
2022/03/23 01:11:33;;;;;;;33.87;15.07;;;2.90;82.10;;;;;;5060670;28;20545;-46
2022/03/23 01:14:01;;;;;;;24.53;15.13;;;2.80;82.20;;;;;;5060223;28;20481;-46
2022/03/23 01:16:28;;;;;;;24.23;14.17;;;2.80;83.20;;;;;;5059113;28;20478;-46
2022/03/23 01:18:55;;;;;;;35.13;15.97;;;2.70;83.30;;;;;;5057600;28;20512;-46
2022/03/23 01:21:22;;;;;;;33.20;14.87;;;2.80;83.00;;;;;;5059076;28;20482;-46
2022/03/23 01:23:50;;;;;;;31.67;15.07;;;2.90;82.20;;;;;;5060021;28;20492;-46
2022/03/23 01:26:16;;;;;;;36.17;14.57;;;3.00;81.30;;;;;;5036228;28;20493;-46
2022/03/23 01:28:43;;;;;;;20.63;13.20;;;3.10;80.50;;;;;;5047276;28;20484;-46
2022/03/23 01:31:12;;;;;;;24.33;15.63;;;3.20;80.30;;;;;;5060443;28;20865;-46
2022/03/23 01:33:39;;;;;;;25.40;13.97;;;3.30;79.80;;;;;;5055005;28;20476;-46
2022/03/23 01:36:06;;;;;;;27.27;16.10;;;3.30;79.80;;;;;;5045062;28;20529;-45
2022/03/23 01:38:33;;;;;;;22.93;14.90;;;3.30;79.70;;;;;;5064206;28;20562;-46
2022/03/23 01:41:00;;;;;;;27.57;16.17;;;3.40;79.60;;;;;;5045802;28;20493;-46
2022/03/23 01:43:26;;;;;;;28.90;14.50;;;3.30;79.60;;;;;;5060195;28;20485;-46
2022/03/23 01:45:53;;;;;;;33.07;15.80;;;3.30;79.60;;;;;;5059646;28;20479;-46
2022/03/23 01:48:22;;;;;;;32.47;15.07;;;3.20;79.50;;;;;;5059786;28;20512;-46
2022/03/23 01:50:50;;;;;;;27.00;14.73;;;3.10;79.40;;;;;;5061472;28;20478;-45
2022/03/23 01:53:17;;;;;;;24.90;15.10;;;3.10;78.80;;;;;;5054789;28;20481;-46
2022/03/23 01:55:44;;;;;;;25.90;14.80;;;3.20;78.70;;;;;;5061492;28;20955;-46
2022/03/23 01:58:11;;;;;;;27.43;15.20;;;3.20;78.80;;;;;;5058791;28;20481;-46
2022/03/23 02:00:38;;;;;;;23.80;14.03;;;;;;;;;;5059056;28;21045;-46
2022/03/23 02:03:05;;;;;;;26.63;13.90;;;3.10;79.60;;;;;;5059099;28;20579;-46
2022/03/23 02:05:33;;;;;;;27.70;13.73;;;3.00;80.30;;;;;;5059775;28;20484;-46
2022/03/23 02:08:00;;;;;;;21.83;13.33;;;2.70;82.10;;;;;;5060717;28;20497;-46
2022/03/23 02:10:28;;;;;;;26.80;14.50;;;2.70;82.60;;;;;;5060742;28;20483;-46
2022/03/23 02:12:55;;;;;;;25.47;14.13;;;2.70;82.50;;;;;;5059095;28;20860;-47
2022/03/23 02:15:24;;;;;;;21.00;13.47;;;2.70;82.10;;;;;;5060902;28;20481;-46
2022/03/23 02:17:53;;;;;;;28.00;14.37;;;2.80;81.80;;;;;;5033008;28;20957;-46
2022/03/23 02:20:20;;;;;;;22.50;15.03;;;2.80;81.10;;;;;;5065123;28;20482;-46
2022/03/23 02:22:49;;;;;;;35.83;16.60;;;2.90;80.60;;;;;;5058583;28;20851;-46
2022/03/23 02:25:21;;;;;;;19.40;12.50;;;2.90;80.40;;;;;;5058242;28;20901;-46
2022/03/23 02:27:50;;;;;;;26.67;14.97;;;2.90;80.30;;;;;;5061036;28;20504;-47
2022/03/23 02:30:16;;;;;;;32.00;14.77;;;2.90;79.30;;;;;;5059385;28;20536;-46
2022/03/23 02:32:43;;;;;;;21.53;14.27;;;2.90;79.10;;;;;;5060363;28;20498;-46
2022/03/23 02:35:11;;;;;;;23.83;14.63;;;2.80;79.00;;;;;;5061724;28;20571;-46
2022/03/23 02:37:38;;;;;;;29.13;14.87;;;2.80;79.60;;;;;;5063922;28;20978;-46
2022/03/23 02:40:08;;;;;;;22.63;13.57;;;2.80;79.60;;;;;;5061452;28;20981;-47
2022/03/23 02:42:35;;;;;;;29.07;14.47;;;2.80;79.50;;;;;;5061903;28;20619;-46
2022/03/23 02:45:02;;;;;;;29.43;13.90;;;2.60;79.40;;;;;;5060867;28;20843;-47
2022/03/23 02:47:29;;;;;;;24.43;13.97;;;2.50;80.20;;;;;;5061941;28;20479;-47
2022/03/23 02:49:55;;;;;;;24.20;14.53;;;2.40;80.60;;;;;;5064394;28;20486;-46
2022/03/23 02:52:22;;;;;;;31.43;15.27;;;2.40;80.80;;;;;;5041019;28;20480;-46
2022/03/23 03:03:38;;;;;;;22.90;14.13;;;2.50;79.80;;;;;;5057810;28;20467;-46
2022/03/23 03:06:05;;;;;;;27.43;14.10;;;2.50;80.00;;;;;;5060908;28;20866;-46
2022/03/23 03:08:48;;;;;;;28.43;14.80;;;2.60;79.90;;;;;;5062185;28;20484;-47
2022/03/23 03:11:16;;;;;;;36.30;14.97;;;2.60;80.00;;;;;;5060554;28;20511;-46
2022/03/23 03:13:45;;;;;;;22.17;13.90;;;2.60;79.60;;;;;;5062521;28;20486;-46
2022/03/23 03:16:12;;;;;;;23.57;13.53;;;2.60;79.60;;;;;;5062490;28;20498;-46
2022/03/23 03:18:39;;;;;;;27.97;14.07;;;2.60;79.30;;;;;;5064227;28;21396;-46
2022/03/23 03:21:07;;;;;;;24.37;14.03;;;2.50;79.70;;;;;;5062468;28;20496;-46
2022/03/23 03:23:35;;;;;;;24.47;14.10;;;;;;;;;;5060364;28;20488;-45
2022/03/23 03:26:05;;;;;;;24.30;14.33;;;2.20;81.50;;;;;;5060246;28;20486;-46
2022/03/23 03:28:32;;;;;;;28.80;14.77;;;2.20;81.70;;;;;;5063246;28;20485;-46
2022/03/23 03:31:00;;;;;;;39.63;15.93;;;2.00;82.80;;;;;;5063613;28;20473;-46
2022/03/23 03:33:27;;;;;;;26.57;15.10;;;2.00;82.10;;;;;;5061637;28;20482;-45
2022/03/23 03:35:54;;;;;;;24.90;14.63;;;2.10;81.50;;;;;;5058985;28;20472;-45
2022/03/23 03:38:21;;;;;;;28.00;15.30;;;2.10;80.90;;;;;;5066843;28;20490;-46
2022/03/23 03:40:47;;;;;;;23.13;14.27;;;2.00;80.70;;;;;;5052257;28;20993;-45
2022/03/23 03:43:16;;;;;;;23.77;13.73;;;2.00;80.60;;;;;;5061163;28;20499;-46
2022/03/23 03:45:43;;;;;;;21.90;14.53;;;2.10;80.70;;;;;;5062651;28;20484;-45
2022/03/23 03:48:11;;;;;;;33.20;14.20;;;2.10;81.30;;;;;;5061068;28;20489;-46
2022/03/23 03:50:39;;;;;;;27.57;15.20;;;2.10;80.70;;;;;;5062316;28;20514;-45
2022/03/23 03:53:06;;;;;;;19.47;12.20;;;2.20;80.00;;;;;;5061802;28;20494;-46
2022/03/23 03:55:33;;;;;;;33.70;16.23;;;2.20;79.60;;;;;;5062834;28;20553;-46
2022/03/23 03:58:00;;;;;;;29.57;14.83;;;2.20;80.00;;;;;;5060715;28;20491;-47
2022/03/23 04:00:27;;;;;;;22.90;13.60;;;2.20;80.20;;;;;;5052959;28;20483;-46
2022/03/23 04:02:53;;;;;;;25.70;13.13;;;2.30;80.00;;;;;;5060803;28;20503;-45
2022/03/23 04:05:22;;;;;;;28.83;16.10;;;2.30;79.80;;;;;;5063165;28;20488;-46
2022/03/23 04:07:48;;;;;;;25.00;13.30;;;2.30;79.80;;;;;;5062118;28;20490;-46
2022/03/23 04:10:16;;;;;;;27.50;15.23;;;2.20;79.70;;;;;;5061269;28;20485;-46
2022/03/23 04:12:42;;;;;;;30.73;15.00;;;2.10;80.30;;;;;;5067042;28;20493;-46
2022/03/23 04:15:10;;;;;;;29.03;14.47;;;2.10;79.70;;;;;;5061120;28;20473;-46
2022/03/23 04:17:37;;;;;;;28.57;15.83;;;2.10;79.60;;;;;;5060194;28;20487;-46
2022/03/23 04:20:04;;;;;;;25.80;15.03;;;2.10;79.70;;;;;;5058571;28;21006;-46
2022/03/23 04:22:33;;;;;;;27.23;15.20;;;2.00;79.70;;;;;;5063690;28;20473;-47
2022/03/23 04:25:00;;;;;;;28.50;15.03;;;1.90;79.80;;;;;;5061562;28;20472;-46
2022/03/23 04:27:26;;;;;;;27.23;15.07;;;1.70;80.10;;;;;;5061197;28;20669;-46
2022/03/23 04:29:54;;;;;;;43.63;16.47;;;1.40;81.00;;;;;;5061105;28;20472;-48
2022/03/23 04:32:20;;;;;;;22.77;14.80;;;1.20;81.80;;;;;;5061836;28;20937;-46
2022/03/23 04:34:47;;;;;;;30.90;15.63;;;1.20;82.60;;;;;;5048067;28;20492;-46
2022/03/23 04:37:14;;;;;;;46.90;17.00;;;1.10;83.60;;;;;;5058333;28;20512;-46
2022/03/23 04:39:42;;;;;;;27.70;13.50;;;1.00;83.70;;;;;;5059979;28;20478;-46
2022/03/23 04:42:09;;;;;;;27.10;14.83;;;1.00;83.60;;;;;;5050623;28;20485;-46
2022/03/23 04:44:36;;;;;;;32.13;14.73;;;1.10;83.50;;;;;;5061275;28;20480;-46
2022/03/23 04:47:03;;;;;;;23.23;13.40;;;1.20;83.00;;;;;;5062218;28;20477;-46
2022/03/23 04:49:29;;;;;;;21.10;13.30;;;1.30;83.00;;;;;;5062663;28;21026;-46
2022/03/23 04:51:56;;;;;;;46.27;15.40;;;1.40;82.80;;;;;;5061936;28;20476;-46
2022/03/23 04:54:23;;;;;;;30.40;16.80;;;1.50;82.30;;;;;;5060006;28;20485;-46
2022/03/23 04:56:51;;;;;;;28.10;15.50;;;1.50;81.70;;;;;;5063120;28;20500;-45
2022/03/23 04:59:18;;;;;;;39.20;14.40;;;1.50;81.30;;;;;;5060654;28;20484;-46
2022/03/23 05:01:44;;;;;;;25.93;15.40;;;1.50;81.00;;;;;;5060299;28;20481;-46
2022/03/23 05:04:11;;;;;;;31.43;13.80;;;1.50;80.30;;;;;;5048765;28;20478;-46
2022/03/23 05:06:38;;;;;;;44.13;14.80;;;1.50;80.60;;;;;;5059899;28;20492;-46
2022/03/23 05:09:05;;;;;;;24.77;16.27;;;1.50;80.40;;;;;;5054902;28;20485;-46
2022/03/23 05:11:31;;;;;;;30.03;14.73;;;1.50;80.40;;;;;;5055020;28;20486;-46
2022/03/23 05:13:59;;;;;;;24.70;13.07;;;1.50;80.50;;;;;;5060187;28;20477;-45
2022/03/23 05:16:26;;;;;;;30.67;14.93;;;1.50;80.20;;;;;;5061222;28;20472;-45
2022/03/23 05:18:53;;;;;;;24.17;13.80;;;1.50;80.30;;;;;;5050139;28;20475;-46
2022/03/23 05:21:19;;;;;;;46.93;16.00;;;1.50;80.60;;;;;;5057688;28;20493;-45
2022/03/23 05:23:46;;;;;;;26.93;16.47;;;1.40;80.30;;;;;;5059023;28;20840;-46
2022/03/23 05:26:13;;;;;;;26.87;13.87;;;1.30;81.00;;;;;;5050117;28;20489;-46
2022/03/23 05:28:40;;;;;;;24.93;14.43;;;1.10;81.80;;;;;;5060709;28;21046;-46
2022/03/23 05:31:08;;;;;;;26.80;14.83;;;1.10;82.00;;;;;;5059824;28;20488;-46
2022/03/23 05:33:35;;;;;;;25.73;15.50;;;1.20;81.60;;;;;;5064319;28;20474;-46
2022/03/23 05:36:01;;;;;;;41.73;18.73;;;1.00;82.30;;;;;;5061055;28;20492;-46
2022/03/23 05:38:28;;;;;;;30.30;15.87;;;1.00;82.80;;;;;;5051333;28;20477;-46
2022/03/23 05:40:55;;;;;;;31.10;15.10;;;1.00;82.40;;;;;;5058205;28;20507;-46
2022/03/23 05:43:22;;;;;;;22.57;15.40;;;1.20;82.00;;;;;;5059367;28;20499;-46
2022/03/23 05:45:49;;;;;;;27.10;14.73;;;1.20;81.80;;;;;;5058777;28;20490;-46
2022/03/23 05:48:17;;;;;;;24.40;15.47;;;1.20;81.80;;;;;;5060132;28;20946;-47
2022/03/23 05:50:44;;;;;;;46.90;17.10;;;1.30;81.20;;;;;;5058101;28;21077;-46
2022/03/23 05:53:11;;;;;;;25.03;15.50;;;1.30;81.10;;;;;;5059967;28;20491;-46
2022/03/23 05:55:38;;;;;;;26.87;14.87;;;1.40;81.10;;;;;;5061194;28;20480;-47
2022/03/23 05:58:04;;;;;;;48.07;16.80;;;1.40;81.40;;;;;;5061596;28;20479;-46
2022/03/23 06:00:32;;;;;;;34.97;17.27;;;1.40;81.30;;;;;;5060993;28;20488;-46
2022/03/23 06:02:58;;;;;;;27.93;14.73;;;1.40;81.30;;;;;;5059403;28;20481;-45
2022/03/23 06:05:26;;;;;;;25.50;15.20;;;1.50;81.20;;;;;;5064276;28;20485;-46
2022/03/23 06:07:53;;;;;;;24.77;15.13;;;1.50;81.10;;;;;;5050510;28;20485;-46
2022/03/23 06:10:20;;;;;;;33.00;17.40;;;1.40;81.50;;;;;;5062226;28;20490;-46
2022/03/23 06:12:46;;;;;;;58.03;18.60;;;1.50;82.10;;;;;;5063215;28;20499;-46
2022/03/23 06:15:13;;;;;;;27.33;14.83;;;1.60;82.00;;;;;;5060867;28;20472;-46
2022/03/23 06:17:40;;;;;;;32.30;16.00;;;1.60;81.90;;;;;;5065134;28;20617;-46
2022/03/23 06:20:08;;;;;;;29.53;17.50;;;1.70;81.50;;;;;;5063691;28;20484;-49
2022/03/23 06:22:36;;;;;;;36.77;15.33;;;1.80;81.50;;;;;;5034566;28;20554;-45
2022/03/23 06:25:04;;;;;;;26.10;15.23;;;1.90;81.50;;;;;;5059259;28;20942;-46
2022/03/23 06:27:30;;;;;;;28.70;16.87;;;2.00;81.30;;;;;;5062002;28;20948;-46
2022/03/23 06:29:57;;;;;;;32.43;16.93;;;2.10;81.50;;;;;;5064038;28;20483;-47
2022/03/23 06:32:24;;;;;;;35.27;19.70;;;2.10;82.10;;;;;;5067864;28;20868;-46
2022/03/23 06:34:50;;;;;;;49.57;19.40;;;3.30;84.90;;;;;;5060751;28;20485;-46
2022/03/23 06:37:17;;;;;;;33.50;19.20;;;3.40;85.50;;;;;;5052702;28;20599;-47
2022/03/23 06:39:45;;;;;;;30.20;18.80;;;4.30;84.20;;;;;;5062069;28;20473;-47
2022/03/23 06:42:12;;;;;;;53.93;26.20;;;6.30;79.20;;;;;;5062550;28;20838;-47
2022/03/23 06:44:39;;;;;;;31.60;19.20;;;6.40;79.60;;;;;;5061644;28;20495;-47
2022/03/23 06:47:06;;;;;;;36.63;19.40;;;7.30;77.50;;;;;;5065011;28;20493;-46
2022/03/23 06:49:33;;;;;;;35.63;19.20;;;8.90;73.70;;;;;;5066054;28;20481;-47
2022/03/23 06:52:00;;;;;;;26.00;16.07;;;8.90;74.20;;;;;;5062702;28;20484;-47
2022/03/23 06:54:26;;;;;;;31.00;19.47;;;9.70;73.20;;;;;;5062306;28;20488;-47
2022/03/23 06:56:55;;;;;;;36.80;19.40;;;11.10;69.50;;;;;;5054231;28;20893;-46
2022/03/23 06:59:22;;;;;;;35.67;20.90;;;11.20;70.00;;;;;;5061015;28;20508;-47
2022/03/23 07:01:49;;;;;;;31.77;19.40;;;12.40;65.40;;;;;;5062212;28;20520;-47
2022/03/23 07:04:16;;;;;;;31.70;19.97;;;13.00;63.90;;;;;;5061912;28;20483;-48
2022/03/23 07:06:43;;;;;;;34.57;23.40;;;13.10;64.40;;;;;;5063966;28;20728;-47
2022/03/23 07:11:55;;;;;;;34.77;24.00;;;14.00;63.10;;;;;;5059619;28;20528;-47
2022/03/23 07:14:22;;;;;;;30.13;21.20;;;14.50;64.50;;;;;;5059498;28;20479;-47
2022/03/23 07:16:49;;;;;;;26.57;20.57;;;15.50;61.50;;;;;;5062999;28;20488;-47
2022/03/23 07:19:16;;;;;;;33.97;22.67;;;15.50;62.30;;;;;;5063107;28;20988;-47
2022/03/23 07:21:43;;;;;;;31.23;21.77;;;16.00;62.50;;;;;;5060906;28;20966;-48
2022/03/23 07:24:10;;;;;;;26.63;17.97;;;17.00;61.60;;;;;;5056809;28;21268;-54
2022/03/23 07:26:37;;;;;;;26.20;19.17;;;17.00;62.20;;;;;;5062620;28;20478;-48
2022/03/23 07:29:05;;;;;;;26.80;19.40;;;17.40;60.70;;;;;;5063848;28;20475;-48
2022/03/23 07:31:32;;;;;;;43.93;21.80;;;17.90;59.60;;;;;;5062528;28;21199;-48
2022/03/23 07:33:59;;;;;;;27.17;21.73;;;17.90;60.10;;;;;;5056821;28;20484;-48
2022/03/23 07:36:26;;;;;;;32.47;21.67;;;18.10;59.70;;;;;;5061911;28;20477;-48
2022/03/23 07:38:53;;;;;;;44.33;22.27;;;18.50;59.10;;;;;;5064360;28;20501;-48
2022/03/23 07:41:20;;;;;;;25.70;21.17;;;18.50;59.50;;;;;;5066455;28;20488;-48
2022/03/23 07:43:48;;;;;;;33.60;21.90;;;18.60;59.70;;;;;;5058287;28;21309;-48
2022/03/23 07:46:17;;;;;;;28.07;20.50;;;18.60;59.10;;;;;;5061877;28;20543;-48
2022/03/23 07:48:44;;;;;;;28.37;22.07;;;18.60;59.20;;;;;;5062172;28;20486;-48
2022/03/23 07:51:11;;;;;;;30.77;22.73;;;18.60;60.00;;;;;;5061074;28;20841;-49
2022/03/23 07:53:38;;;;;;;37.57;22.60;;;18.40;59.10;;;;;;5061692;28;20478;-48
2022/03/23 07:56:05;;;;;;;33.87;22.17;;;18.40;59.60;;;;;;5062519;28;20493;-48
2022/03/23 07:58:31;;;;;;;30.70;22.80;;;18.10;59.30;;;;;;5065794;28;20481;-48
2022/03/23 08:00:58;;;;;;;37.40;20.97;;;18.00;60.20;;;;;;5066463;28;20490;-48
2022/03/23 08:03:26;;;;;;;34.37;23.87;;;17.90;60.80;;;;;;5061575;28;20490;-48
2022/03/23 08:05:53;;;;;;;32.47;20.97;;;17.70;59.90;;;;;;5062561;28;20489;-48
2022/03/23 08:08:20;;;;;;;35.57;21.83;;;17.50;61.50;;;;;;5062568;28;20475;-49
2022/03/23 08:10:47;;;;;;;36.17;24.87;;;17.50;62.30;;;;;;5061908;28;20483;-48
2022/03/23 08:13:16;;;;;;;38.77;22.63;;;17.30;61.50;;;;;;5058726;28;21313;-48
2022/03/23 08:15:43;;;;;;;37.13;22.60;;;17.20;60.90;;;;;;5062314;28;20483;-49
2022/03/23 08:18:10;;;;;;;29.93;24.10;;;17.20;61.50;;;;;;5061427;28;20479;-48
2022/03/23 08:20:38;;;;;;;29.93;23.10;;;17.10;61.10;;;;;;5062029;28;20489;-48
2022/03/23 08:23:07;;;;;;;33.27;23.20;;;17.10;61.50;;;;;;5044688;28;20509;-48
2022/03/23 08:25:37;;;;;;;32.23;23.70;;;17.10;61.80;;;;;;5046882;28;20482;-48
2022/03/23 08:28:05;;;;;;;42.60;25.57;;;17.10;62.20;;;;;;5063908;28;20471;-49
2022/03/23 08:30:32;;;;;;;37.13;23.87;;;17.10;63.10;;;;;;5062275;28;20859;-48
2022/03/23 08:32:59;;;;;;;35.87;24.20;;;17.10;63.30;;;;;;5059598;28;20483;-48
2022/03/23 08:35:26;;;;;;;30.73;23.03;;;17.20;62.40;;;;;;5059406;28;20481;-48
2022/03/23 08:37:54;;;;;;;37.27;26.63;;;17.30;60.80;;;;;;5057774;28;20490;-48
2022/03/23 08:40:21;;;;;;;43.60;26.13;;;17.30;63.10;;;;;;5047699;28;20860;-49
2022/03/23 08:42:48;;;;;;;34.60;24.40;;;17.30;62.60;;;;;;5060280;28;20479;-48
2022/03/23 08:45:16;;;;;;;37.17;25.23;;;17.40;62.80;;;;;;5052409;28;20478;-49
2022/03/23 08:47:43;;;;;;;35.53;26.30;;;17.40;63.40;;;;;;5055344;28;20490;-48
2022/03/23 08:50:13;;;;;;;39.10;24.50;;;17.60;62.50;;;;;;5027175;28;20617;-48
2022/03/23 08:52:41;;;;;;;36.80;25.20;;;17.60;63.10;;;;;;5057810;28;20478;-48
2022/03/23 08:55:14;;;;;;;40.03;26.33;;;17.80;62.00;;;;;;5058673;28;20562;-48
2022/03/23 08:57:41;;;;;;;43.23;23.80;;;17.90;60.80;;;;;;5061800;28;20486;-48
2022/03/23 09:00:09;;;;;;;45.23;25.83;;;18.10;59.90;;;;;;5061414;28;20506;-48
2022/03/23 09:02:36;;;;;;;41.10;23.43;;;18.20;59.00;;;;;;5060683;28;20497;-49
2022/03/23 09:05:03;;;;;;;46.13;25.17;;;18.40;59.00;;;;;;5058827;28;20483;-48
2022/03/23 09:07:32;;;;;;;44.77;25.37;;;18.40;59.50;;;;;;5060894;28;20483;-48
2022/03/23 09:10:00;;;;;;;40.10;26.63;;;18.50;59.70;;;;;;5060833;28;20490;-48
2022/03/23 09:12:28;;;;;;;43.97;26.70;;;18.80;58.10;;;;;;5060273;28;20489;-48
2022/03/23 09:14:54;;;;;;;41.43;25.30;;;18.80;58.60;;;;;;5059257;28;20482;-48
2022/03/23 09:17:22;;;;;;;39.10;25.20;;;19.00;59.00;;;;;;5062029;28;20491;-48
2022/03/23 09:19:49;;;;;;;38.20;24.33;;;19.30;56.70;;;;;;5061265;28;20510;-49
2022/03/23 09:22:16;;;;;;;34.70;25.73;;;19.40;56.30;;;;;;5060010;28;20824;-49
2022/03/23 09:24:42;;;;;;;40.73;26.30;;;19.50;57.70;;;;;;5029597;28;20475;-48
2022/03/23 09:27:09;;;;;;;47.63;26.30;;;19.80;57.40;;;;;;5046646;28;20486;-48
2022/03/23 09:29:37;;;;;;;39.60;28.43;;;19.90;57.40;;;;;;5059903;28;20490;-48
2022/03/23 09:32:09;;;;;;;47.73;28.57;;;20.00;57.10;;;;;;5053447;28;20898;-48
2022/03/23 09:34:36;;;;;;;37.07;24.73;;;20.10;58.70;;;;;;5058919;28;20506;-48
2022/03/23 09:39:48;;;;;;;34.27;24.23;;;20.60;57.70;;;;;;5062963;28;20886;-48
2022/03/23 09:42:18;;;;;;;31.87;24.00;;;20.60;58.50;;;;;;5061081;28;20964;-49
2022/03/23 09:44:47;;;;;;;38.50;24.37;;;20.80;59.70;;;;;;5030651;28;20462;-48
2022/03/23 09:47:14;;;;;;;32.50;24.87;;;20.80;60.20;;;;;;5057377;28;20491;-52
2022/03/23 09:49:41;;;;;;;37.20;24.67;;;21.10;60.00;;;;;;5061822;28;20571;-49
2022/03/23 09:52:08;;;;;;;41.67;25.50;;;21.30;59.80;;;;;;5060217;28;20489;-48
2022/03/23 09:54:35;;;;;;;36.13;25.97;;;21.30;60.60;;;;;;5062150;28;20506;-48
2022/03/23 09:57:02;;;;;;;43.13;24.97;;;21.40;58.70;;;;;;5060592;28;20499;-48
2022/03/23 09:59:28;;;;;;;41.53;25.50;;;21.70;58.60;;;;;;5060807;28;20966;-51
2022/03/23 10:02:25;;;;;;;35.83;24.63;;;21.80;59.00;;;;;;5059417;28;20487;-50
2022/03/23 10:05:39;;;;;;;33.90;25.67;;;22.00;59.10;;;;;;5045799;28;20895;-49
2022/03/23 10:08:38;;;;;;;33.00;23.60;;;22.10;56.80;;;;;;5058579;28;20479;-48
2022/03/23 10:11:47;;;;;;;42.80;25.20;;;22.20;55.30;;;;;;5059950;28;20968;-48
2022/03/23 10:15:01;;;;;;;34.10;23.90;;;22.20;51.70;;;;;;4998284;28;21391;-54
2022/03/23 10:17:54;;;;;;;33.90;22.50;;;22.20;55.90;;;;;;4982221;28;20976;-48
2022/03/23 10:20:22;;;;;;;29.50;21.70;;;22.30;54.30;;;;;;5055415;28;20481;-50
2022/03/23 10:22:51;;;;;;;39.03;21.77;;;22.20;49.00;;;;;;5060137;28;20481;-48
2022/03/23 10:25:20;;;;;;;27.57;21.13;;;22.20;51.30;;;;;;5041192;28;20485;-48
2022/03/23 10:27:47;;;;;;;32.13;21.47;;;22.20;49.70;;;;;;5059403;28;20500;-49
2022/03/23 10:30:15;;;;;;;32.07;22.83;;;22.20;51.30;;;;;;5056119;28;20486;-55
2022/03/23 10:32:42;;;;;;;28.50;20.57;;;22.20;50.50;;;;;;5061718;28;20492;-48
2022/03/23 10:35:13;;;;;;;30.97;21.03;;;22.30;51.10;;;;;;5057196;28;20490;-49
2022/03/23 10:37:43;;;;;;;29.17;21.53;;;22.30;50.10;;;;;;5060379;28;20490;-48
2022/03/23 10:40:13;;;;;;;32.53;22.60;;;22.20;50.10;;;;;;5038377;28;20475;-49
2022/03/23 10:42:42;;;;;;;37.20;22.50;;;22.30;50.30;;;;;;5063512;28;20493;-49
2022/03/23 10:45:11;;;;;;;32.60;23.13;;;22.40;51.90;;;;;;5056516;28;20483;-49
2022/03/23 10:47:40;;;;;;;33.97;22.97;;;22.40;50.70;;;;;;5059753;28;20482;-49
2022/03/23 10:50:09;;;;;;;34.23;21.27;;;22.60;51.20;;;;;;5058612;28;20485;-48
2022/03/23 10:52:36;;;;;;;28.43;21.07;;;22.70;50.00;;;;;;5063655;28;20476;-49
2022/03/23 10:55:07;;;;;;;32.93;21.87;;;22.80;50.50;;;;;;5047926;28;20471;-48
2022/03/23 10:58:25;;;;;;;31.77;21.17;;;22.80;48.50;;;;;;5062893;28;20507;-49
2022/03/23 11:00:56;;;;;;;28.37;19.87;;;22.80;48.50;;;;;;4973502;28;21115;-49
2022/03/23 11:03:39;;;;;;;27.97;19.97;;;22.80;49.60;;;;;;4986722;28;20487;-56
2022/03/23 11:06:07;;;;;;;27.83;20.00;;;22.90;50.00;;;;;;5040855;28;20486;-48
2022/03/23 11:08:33;;;;;;;26.87;19.67;;;23.00;49.20;;;;;;5062473;28;20536;-48
2022/03/23 11:16:38;;;;;;;28.67;18.57;;;23.30;48.70;;;;;;5060189;28;20913;-48
2022/03/23 11:19:14;;;;;;;24.70;18.90;;;;;;;;;;5059937;28;20514;-48
2022/03/23 11:21:57;;;;;;;25.40;17.67;;;23.40;47.90;;;;;;5064421;28;20826;-48
2022/03/23 11:24:24;;;;;;;25.90;19.20;;;23.30;48.50;;;;;;5059715;28;20506;-49
2022/03/23 11:26:53;;;;;;;28.27;18.77;;;23.30;49.10;;;;;;5064365;28;20574;-48
2022/03/23 11:29:20;;;;;;;26.53;18.87;;;23.30;49.20;;;;;;5063712;28;20498;-49
2022/03/23 11:31:47;;;;;;;28.17;18.97;;;23.40;49.60;;;;;;5060365;28;20481;-48
2022/03/23 11:34:18;;;;;;;31.53;19.27;;;23.50;48.10;;;;;;5059472;28;20484;-48
2022/03/23 11:36:46;;;;;;;21.97;18.43;;;23.50;48.50;;;;;;5062130;28;20474;-48
2022/03/23 11:39:12;;;;;;;27.23;18.90;;;23.70;50.40;;;;;;5062518;28;20577;-49
2022/03/23 11:41:41;;;;;;;32.20;21.13;;;23.60;47.60;;;;;;5063971;28;21191;-48
2022/03/23 11:44:12;;;;;;;32.03;22.03;;;23.60;48.40;;;;;;5050849;28;20485;-48
2022/03/23 11:46:40;;;;;;;33.70;22.60;;;23.50;48.20;;;;;;5059141;28;20481;-48
2022/03/23 11:49:15;;;;;;;28.33;20.93;;;23.50;48.40;;;;;;5066418;28;20486;-49
2022/03/23 11:52:12;;;;;;;31.07;22.20;;;23.60;50.60;;;;;;5063122;28;20486;-48
2022/03/23 11:58:00;;;;;;;31.57;22.47;;;23.80;49.00;;;;;;5062756;28;21304;-48
2022/03/23 12:00:36;;;;;;;30.07;20.87;;;24.00;49.80;;;;;;5063095;28;20462;-48
2022/03/23 12:03:04;;;;;;;32.90;21.93;;;24.10;50.80;;;;;;5057407;28;20512;-48
2022/03/23 12:05:32;;;;;;;31.33;23.23;;;24.10;47.20;;;;;;5061686;28;20980;-49
2022/03/23 12:07:59;;;;;;;28.07;20.70;;;24.30;48.70;;;;;;5058516;28;20486;-48
2022/03/23 12:10:28;;;;;;;28.20;22.13;;;24.20;45.60;;;;;;5060725;28;20463;-50
2022/03/23 12:12:55;;;;;;;27.07;21.40;;;24.20;46.10;;;;;;5061152;28;20488;-48
2022/03/23 12:15:27;;;;;;;26.90;20.33;;;24.10;46.90;;;;;;5061641;28;20471;-49
2022/03/23 12:18:03;;;;;;;29.43;22.00;;;23.90;46.30;;;;;;5033027;28;20493;-48
2022/03/23 12:20:31;;;;;;;27.47;22.00;;;23.80;45.90;;;;;;5058895;28;20486;-48
2022/03/23 12:23:17;;;;;;;26.33;20.73;;;23.80;48.20;;;;;;5060036;28;20994;-48
2022/03/23 12:26:00;;;;;;;31.17;21.67;;;24.00;48.60;;;;;;5062424;28;20995;-48
2022/03/23 12:28:43;;;;;;;30.70;21.87;;;24.30;47.20;;;;;;5062211;28;20448;-49
2022/03/23 12:31:14;;;;;;;27.53;20.60;;;24.30;45.60;;;;;;5061741;28;20487;-48
2022/03/23 12:34:06;;;;;;;33.57;21.43;;;24.50;47.10;;;;;;5049690;28;20514;-48
2022/03/23 12:39:34;;;;;;;31.57;20.07;;;24.20;45.70;;;;;;5061880;28;20524;-48
2022/03/23 12:42:16;;;;;;;31.00;20.37;;;24.10;45.30;;;;;;5040816;28;20508;-48
2022/03/23 12:44:46;;;;;;;28.50;21.67;;;24.00;47.60;;;;;;5054870;28;20481;-48
2022/03/23 12:47:18;;;;;;;34.63;19.97;;;24.10;47.80;;;;;;5062178;28;20482;-49
2022/03/23 12:58:09;;;;;;;32.20;21.33;;;24.60;46.30;;;;;;5059528;28;20891;-49
2022/03/23 13:00:40;;;;;;;27.57;20.40;;;24.80;46.00;;;;;;5061125;28;20474;-48
2022/03/23 13:03:54;;;;;;;29.23;21.00;;;25.00;46.00;;;;;;5058356;28;20461;-49
2022/03/23 13:06:33;;;;;;;27.17;21.50;;;24.90;44.90;;;;;;5061858;28;20482;-49
2022/03/23 13:09:00;;;;;;;24.97;20.87;;;24.90;46.30;;;;;;5048457;28;21043;-50
2022/03/23 13:11:29;;;;;;;28.47;22.20;;;24.90;46.20;;;;;;5062055;28;20544;-49
2022/03/23 13:13:58;;;;;;;44.07;21.60;;;25.00;45.30;;;;;;5031196;28;21005;-49
2022/03/23 13:16:26;;;;;;;27.20;22.03;;;25.10;44.90;;;;;;5061554;28;20445;-49